Search found 2 matches

by Phil Layton
Mon Nov 07, 2016 12:49 pm
Forum: Digital Atmosphere
Topic: New Digital Atmosphere release (Nov 2016)
Replies: 3
Views: 27239

Re: New Digital Atmosphere release (Nov 2016)

Tim, as far as bugs are concerned, the only one that comes to mind are METARs when there is RVR included. At least in Europe. For example take:METAR EGLL 010650Z 28002KT 1300 R09L/P1500 R09R/0600 BR BCFG NSC 06/06 Q1023 TEMPO 0500 FG BKN001= The ceiling will take the Temperature i.e. C6 will be disp...
by Phil Layton
Mon Nov 07, 2016 12:40 pm
Forum: Digital Atmosphere
Topic: New data source file
Replies: 1
Views: 18454

Re: New data source file

Thanks Tim for the updates. I have to admit the relocation of the NWS data files to http://tgftp.nws.noaa.gov/fax/Amaster_index.html caught me out earlier in the year. Just for info the UK/Europe Lightning data disappeared 2008 and the locations http://tgftp.nws.noaa.gov/data/raw/sf/sfuk30.egrr..txt...